sensor_id;sensor_type;location;lat;lon;timestamp;P1;durP1;ratioP1;P2;durP2;ratioP2
23800;SDS011;12081;48.614;10.226;2023-07-20T00:01:34;3.43;;;1.37;;
23800;SDS011;12081;48.614;10.226;2023-07-20T00:04:19;1.97;;;1.33;;
23800;SDS011;12081;48.614;10.226;2023-07-20T00:07:03;3.10;;;1.03;;
23800;SDS011;12081;48.614;10.226;2023-07-20T00:09:48;4.23;;;1.67;;
23800;SDS011;12081;48.614;10.226;2023-07-20T00:12:32;2.53;;;1.13;;
23800;SDS011;12081;48.614;10.226;2023-07-20T00:20:30;2.40;;;1.27;;
23800;SDS011;12081;48.614;10.226;2023-07-20T00:25:48;2.67;;;1.20;;
23800;SDS011;12081;48.614;10.226;2023-07-20T00:28:32;4.40;;;1.30;;
23800;SDS011;12081;48.614;10.226;2023-07-20T00:31:17;1.57;;;1.00;;
23800;SDS011;12081;48.614;10.226;2023-07-20T00:34:01;3.07;;;1.20;;
23800;SDS011;12081;48.614;10.226;2023-07-20T00:36:45;1.03;;;0.90;;
23800;SDS011;12081;48.614;10.226;2023-07-20T00:39:29;5.40;;;1.70;;
23800;SDS011;12081;48.614;10.226;2023-07-20T00:42:13;8.13;;;1.60;;
23800;SDS011;12081;48.614;10.226;2023-07-20T00:44:58;6.67;;;1.70;;
23800;SDS011;12081;48.614;10.226;2023-07-20T00:47:42;3.63;;;1.77;;
23800;SDS011;12081;48.614;10.226;2023-07-20T00:50:27;4.60;;;1.70;;
23800;SDS011;12081;48.614;10.226;2023-07-20T00:53:12;5.87;;;1.73;;
23800;SDS011;12081;48.614;10.226;2023-07-20T00:55:56;2.37;;;1.60;;
23800;SDS011;12081;48.614;10.226;2023-07-20T00:58:41;5.00;;;1.80;;
23800;SDS011;12081;48.614;10.226;2023-07-20T01:01:26;4.40;;;2.20;;
23800;SDS011;12081;48.614;10.226;2023-07-20T01:04:10;3.60;;;1.77;;
23800;SDS011;12081;48.614;10.226;2023-07-20T01:07:01;4.83;;;2.00;;
23800;SDS011;12081;48.614;10.226;2023-07-20T01:09:48;1.90;;;1.37;;
23800;SDS011;12081;48.614;10.226;2023-07-20T01:12:46;3.17;;;1.70;;
23800;SDS011;12081;48.614;10.226;2023-07-20T01:15:33;4.60;;;1.80;;
23800;SDS011;12081;48.614;10.226;2023-07-20T01:18:18;2.13;;;1.83;;
23800;SDS011;12081;48.614;10.226;2023-07-20T01:21:03;5.30;;;1.80;;
23800;SDS011;12081;48.614;10.226;2023-07-20T01:24:11;4.53;;;2.10;;
23800;SDS011;12081;48.614;10.226;2023-07-20T01:33:23;5.57;;;2.00;;
23800;SDS011;12081;48.614;10.226;2023-07-20T01:36:09;3.30;;;1.60;;
23800;SDS011;12081;48.614;10.226;2023-07-20T01:38:54;3.67;;;2.23;;
23800;SDS011;12081;48.614;10.226;2023-07-20T01:41:40;2.53;;;1.80;;
23800;SDS011;12081;48.614;10.226;2023-07-20T01:44:24;3.03;;;1.93;;
23800;SDS011;12081;48.614;10.226;2023-07-20T01:47:08;5.00;;;1.90;;
23800;SDS011;12081;48.614;10.226;2023-07-20T01:49:52;6.27;;;2.23;;
23800;SDS011;12081;48.614;10.226;2023-07-20T01:52:36;4.23;;;1.90;;
23800;SDS011;12081;48.614;10.226;2023-07-20T01:55:21;3.60;;;2.00;;
23800;SDS011;12081;48.614;10.226;2023-07-20T01:58:05;5.03;;;2.00;;
23800;SDS011;12081;48.614;10.226;2023-07-20T02:00:50;2.17;;;1.70;;
23800;SDS011;12081;48.614;10.226;2023-07-20T02:03:36;4.33;;;2.20;;
23800;SDS011;12081;48.614;10.226;2023-07-20T02:08:54;3.00;;;1.93;;
23800;SDS011;12081;48.614;10.226;2023-07-20T02:11:38;2.93;;;1.87;;
23800;SDS011;12081;48.614;10.226;2023-07-20T02:14:22;3.70;;;2.13;;
23800;SDS011;12081;48.614;10.226;2023-07-20T02:17:06;3.47;;;2.00;;
23800;SDS011;12081;48.614;10.226;2023-07-20T02:19:52;7.87;;;2.03;;
23800;SDS011;12081;48.614;10.226;2023-07-20T02:22:37;4.93;;;1.97;;
23800;SDS011;12081;48.614;10.226;2023-07-20T02:25:22;2.40;;;1.87;;
23800;SDS011;12081;48.614;10.226;2023-07-20T02:28:07;4.57;;;2.23;;
23800;SDS011;12081;48.614;10.226;2023-07-20T02:30:53;5.40;;;2.17;;
23800;SDS011;12081;48.614;10.226;2023-07-20T02:33:37;5.40;;;1.77;;
23800;SDS011;12081;48.614;10.226;2023-07-20T02:36:21;3.40;;;1.93;;
23800;SDS011;12081;48.614;10.226;2023-07-20T02:39:05;2.90;;;1.90;;
23800;SDS011;12081;48.614;10.226;2023-07-20T02:41:50;3.87;;;2.27;;
23800;SDS011;12081;48.614;10.226;2023-07-20T02:44:34;3.93;;;2.13;;
23800;SDS011;12081;48.614;10.226;2023-07-20T02:47:19;3.80;;;2.20;;
23800;SDS011;12081;48.614;10.226;2023-07-20T02:50:05;3.80;;;1.80;;
23800;SDS011;12081;48.614;10.226;2023-07-20T02:52:50;3.60;;;1.90;;
23800;SDS011;12081;48.614;10.226;2023-07-20T02:55:34;2.53;;;2.10;;
23800;SDS011;12081;48.614;10.226;2023-07-20T02:58:18;4.00;;;1.57;;
23800;SDS011;12081;48.614;10.226;2023-07-20T03:01:03;3.03;;;1.77;;
23800;SDS011;12081;48.614;10.226;2023-07-20T03:03:47;4.07;;;1.80;;
23800;SDS011;12081;48.614;10.226;2023-07-20T03:06:31;2.93;;;2.03;;
23800;SDS011;12081;48.614;10.226;2023-07-20T03:09:15;4.47;;;1.80;;
23800;SDS011;12081;48.614;10.226;2023-07-20T03:12:00;3.57;;;1.97;;
23800;SDS011;12081;48.614;10.226;2023-07-20T03:14:45;3.77;;;1.90;;
23800;SDS011;12081;48.614;10.226;2023-07-20T03:17:29;3.70;;;1.77;;
23800;SDS011;12081;48.614;10.226;2023-07-20T03:20:14;7.50;;;2.17;;
23800;SDS011;12081;48.614;10.226;2023-07-20T03:22:58;2.93;;;1.80;;
23800;SDS011;12081;48.614;10.226;2023-07-20T03:25:42;3.20;;;2.00;;
23800;SDS011;12081;48.614;10.226;2023-07-20T03:28:26;5.10;;;1.93;;
23800;SDS011;12081;48.614;10.226;2023-07-20T03:31:10;2.53;;;1.53;;
23800;SDS011;12081;48.614;10.226;2023-07-20T03:33:54;4.87;;;2.17;;
23800;SDS011;12081;48.614;10.226;2023-07-20T03:36:38;3.03;;;1.70;;
23800;SDS011;12081;48.614;10.226;2023-07-20T03:39:22;2.73;;;1.63;;
23800;SDS011;12081;48.614;10.226;2023-07-20T03:42:07;5.10;;;2.07;;
23800;SDS011;12081;48.614;10.226;2023-07-20T03:44:51;2.63;;;1.60;;
23800;SDS011;12081;48.614;10.226;2023-07-20T03:47:35;2.70;;;2.10;;
23800;SDS011;12081;48.614;10.226;2023-07-20T03:50:19;5.87;;;2.30;;
23800;SDS011;12081;48.614;10.226;2023-07-20T03:53:04;2.83;;;1.70;;
23800;SDS011;12081;48.614;10.226;2023-07-20T03:55:49;4.70;;;2.07;;
23800;SDS011;12081;48.614;10.226;2023-07-20T03:58:34;5.77;;;2.07;;
23800;SDS011;12081;48.614;10.226;2023-07-20T04:01:19;2.93;;;1.73;;
23800;SDS011;12081;48.614;10.226;2023-07-20T04:04:06;2.57;;;1.83;;
23800;SDS011;12081;48.614;10.226;2023-07-20T04:06:51;4.53;;;2.40;;
23800;SDS011;12081;48.614;10.226;2023-07-20T04:09:35;3.83;;;1.90;;
23800;SDS011;12081;48.614;10.226;2023-07-20T04:12:19;2.47;;;1.83;;
23800;SDS011;12081;48.614;10.226;2023-07-20T04:15:03;2.90;;;1.90;;
23800;SDS011;12081;48.614;10.226;2023-07-20T04:17:48;3.77;;;2.17;;
23800;SDS011;12081;48.614;10.226;2023-07-20T04:20:34;4.33;;;2.20;;
23800;SDS011;12081;48.614;10.226;2023-07-20T04:23:18;2.43;;;1.80;;
23800;SDS011;12081;48.614;10.226;2023-07-20T04:26:02;3.17;;;2.00;;
23800;SDS011;12081;48.614;10.226;2023-07-20T04:28:46;2.80;;;1.60;;
23800;SDS011;12081;48.614;10.226;2023-07-20T04:31:31;4.27;;;2.17;;
23800;SDS011;12081;48.614;10.226;2023-07-20T04:34:16;5.00;;;2.10;;
23800;SDS011;12081;48.614;10.226;2023-07-20T04:37:01;4.23;;;2.17;;
23800;SDS011;12081;48.614;10.226;2023-07-20T04:39:45;6.57;;;2.00;;
23800;SDS011;12081;48.614;10.226;2023-07-20T04:42:29;3.50;;;2.00;;
23800;SDS011;12081;48.614;10.226;2023-07-20T04:45:14;2.53;;;2.00;;
23800;SDS011;12081;48.614;10.226;2023-07-20T04:47:58;3.43;;;1.60;;
23800;SDS011;12081;48.614;10.226;2023-07-20T04:50:43;3.30;;;2.20;;
23800;SDS011;12081;48.614;10.226;2023-07-20T04:53:29;4.90;;;1.80;;
23800;SDS011;12081;48.614;10.226;2023-07-20T04:56:14;5.73;;;1.97;;
23800;SDS011;12081;48.614;10.226;2023-07-20T04:58:59;5.13;;;1.97;;
23800;SDS011;12081;48.614;10.226;2023-07-20T05:01:43;3.60;;;1.80;;
23800;SDS011;12081;48.614;10.226;2023-07-20T05:04:28;4.90;;;1.87;;
23800;SDS011;12081;48.614;10.226;2023-07-20T05:07:12;4.10;;;2.30;;
23800;SDS011;12081;48.614;10.226;2023-07-20T05:09:56;4.63;;;1.93;;
23800;SDS011;12081;48.614;10.226;2023-07-20T05:12:41;3.80;;;1.70;;
23800;SDS011;12081;48.614;10.226;2023-07-20T05:15:26;3.20;;;2.17;;
23800;SDS011;12081;48.614;10.226;2023-07-20T05:18:10;3.63;;;2.00;;
23800;SDS011;12081;48.614;10.226;2023-07-20T05:20:54;5.30;;;1.90;;
23800;SDS011;12081;48.614;10.226;2023-07-20T05:23:38;4.63;;;1.80;;
23800;SDS011;12081;48.614;10.226;2023-07-20T05:26:23;4.87;;;1.83;;
23800;SDS011;12081;48.614;10.226;2023-07-20T05:29:07;3.40;;;2.20;;
23800;SDS011;12081;48.614;10.226;2023-07-20T05:35:17;3.17;;;1.70;;
23800;SDS011;12081;48.614;10.226;2023-07-20T05:38:02;6.83;;;1.97;;
23800;SDS011;12081;48.614;10.226;2023-07-20T05:40:47;3.53;;;1.90;;
23800;SDS011;12081;48.614;10.226;2023-07-20T05:43:32;3.10;;;2.13;;
23800;SDS011;12081;48.614;10.226;2023-07-20T05:46:16;4.63;;;1.87;;
23800;SDS011;12081;48.614;10.226;2023-07-20T05:49:00;4.07;;;2.03;;
23800;SDS011;12081;48.614;10.226;2023-07-20T05:51:45;4.13;;;1.90;;
23800;SDS011;12081;48.614;10.226;2023-07-20T05:54:30;6.63;;;2.03;;
23800;SDS011;12081;48.614;10.226;2023-07-20T05:57:14;9.13;;;2.03;;
23800;SDS011;12081;48.614;10.226;2023-07-20T05:59:58;5.27;;;2.37;;
23800;SDS011;12081;48.614;10.226;2023-07-20T06:02:42;3.27;;;1.90;;
23800;SDS011;12081;48.614;10.226;2023-07-20T06:05:29;3.20;;;1.80;;
23800;SDS011;12081;48.614;10.226;2023-07-20T06:08:14;8.20;;;1.90;;
23800;SDS011;12081;48.614;10.226;2023-07-20T06:10:59;5.57;;;1.80;;
23800;SDS011;12081;48.614;10.226;2023-07-20T06:13:43;3.70;;;1.77;;
23800;SDS011;12081;48.614;10.226;2023-07-20T06:16:28;3.93;;;1.97;;
23800;SDS011;12081;48.614;10.226;2023-07-20T06:19:12;2.50;;;1.77;;
23800;SDS011;12081;48.614;10.226;2023-07-20T06:21:56;4.57;;;1.90;;
23800;SDS011;12081;48.614;10.226;2023-07-20T06:24:40;3.20;;;2.00;;
23800;SDS011;12081;48.614;10.226;2023-07-20T06:27:24;3.90;;;2.07;;
23800;SDS011;12081;48.614;10.226;2023-07-20T06:30:09;5.90;;;1.93;;
23800;SDS011;12081;48.614;10.226;2023-07-20T06:32:54;6.10;;;1.87;;
23800;SDS011;12081;48.614;10.226;2023-07-20T06:35:40;5.10;;;2.03;;
23800;SDS011;12081;48.614;10.226;2023-07-20T06:38:26;3.53;;;2.07;;
23800;SDS011;12081;48.614;10.226;2023-07-20T06:41:11;2.27;;;1.60;;
23800;SDS011;12081;48.614;10.226;2023-07-20T06:43:55;2.57;;;1.37;;
23800;SDS011;12081;48.614;10.226;2023-07-20T06:46:41;4.00;;;1.97;;
23800;SDS011;12081;48.614;10.226;2023-07-20T06:49:26;3.83;;;1.53;;
23800;SDS011;12081;48.614;10.226;2023-07-20T06:52:12;4.23;;;1.70;;
23800;SDS011;12081;48.614;10.226;2023-07-20T06:54:56;2.63;;;1.60;;
23800;SDS011;12081;48.614;10.226;2023-07-20T06:57:40;2.88;;;1.70;;
23800;SDS011;12081;48.614;10.226;2023-07-20T07:00:24;2.23;;;1.30;;
23800;SDS011;12081;48.614;10.226;2023-07-20T07:03:08;4.67;;;1.60;;
23800;SDS011;12081;48.614;10.226;2023-07-20T07:05:54;4.77;;;1.23;;
23800;SDS011;12081;48.614;10.226;2023-07-20T07:08:40;6.22;;;1.30;;
23800;SDS011;12081;48.614;10.226;2023-07-20T07:11:24;3.10;;;1.20;;
23800;SDS011;12081;48.614;10.226;2023-07-20T07:14:08;5.75;;;1.20;;
23800;SDS011;12081;48.614;10.226;2023-07-20T07:16:52;1.60;;;1.20;;
23800;SDS011;12081;48.614;10.226;2023-07-20T07:19:37;3.05;;;1.40;;
23800;SDS011;12081;48.614;10.226;2023-07-20T07:22:22;2.78;;;1.50;;
23800;SDS011;12081;48.614;10.226;2023-07-20T07:25:06;2.00;;;1.55;;
23800;SDS011;12081;48.614;10.226;2023-07-20T07:27:52;2.30;;;1.23;;
23800;SDS011;12081;48.614;10.226;2023-07-20T07:30:36;2.00;;;1.20;;
23800;SDS011;12081;48.614;10.226;2023-07-20T07:33:21;1.83;;;1.45;;
23800;SDS011;12081;48.614;10.226;2023-07-20T07:36:05;2.65;;;1.60;;
23800;SDS011;12081;48.614;10.226;2023-07-20T07:38:49;2.55;;;1.48;;
23800;SDS011;12081;48.614;10.226;2023-07-20T07:41:33;1.95;;;1.25;;
23800;SDS011;12081;48.614;10.226;2023-07-20T07:44:17;3.03;;;1.80;;
23800;SDS011;12081;48.614;10.226;2023-07-20T07:47:01;3.13;;;1.63;;
23800;SDS011;12081;48.614;10.226;2023-07-20T07:49:46;2.55;;;1.30;;
23800;SDS011;12081;48.614;10.226;2023-07-20T07:52:30;2.45;;;1.30;;
23800;SDS011;12081;48.614;10.226;2023-07-20T07:55:14;2.50;;;1.23;;
23800;SDS011;12081;48.614;10.226;2023-07-20T07:58:00;6.07;;;1.30;;
23800;SDS011;12081;48.614;10.226;2023-07-20T08:00:44;4.70;;;1.67;;
23800;SDS011;12081;48.614;10.226;2023-07-20T08:03:28;2.70;;;1.40;;
23800;SDS011;12081;48.614;10.226;2023-07-20T08:06:12;2.60;;;1.38;;
23800;SDS011;12081;48.614;10.226;2023-07-20T08:08:57;3.22;;;1.60;;
23800;SDS011;12081;48.614;10.226;2023-07-20T08:11:41;3.50;;;1.40;;
23800;SDS011;12081;48.614;10.226;2023-07-20T08:14:25;3.58;;;1.52;;
23800;SDS011;12081;48.614;10.226;2023-07-20T08:17:09;3.28;;;1.48;;
23800;SDS011;12081;48.614;10.226;2023-07-20T08:19:53;1.48;;;1.38;;
23800;SDS011;12081;48.614;10.226;2023-07-20T08:22:37;4.80;;;1.60;;
23800;SDS011;12081;48.614;10.226;2023-07-20T08:25:22;1.48;;;1.17;;
23800;SDS011;12081;48.614;10.226;2023-07-20T08:28:07;2.17;;;1.30;;
23800;SDS011;12081;48.614;10.226;2023-07-20T08:30:53;3.25;;;1.30;;
23800;SDS011;12081;48.614;10.226;2023-07-20T08:33:37;2.70;;;1.35;;
23800;SDS011;12081;48.614;10.226;2023-07-20T08:36:21;1.70;;;1.00;;
23800;SDS011;12081;48.614;10.226;2023-07-20T08:39:05;1.58;;;1.13;;
23800;SDS011;12081;48.614;10.226;2023-07-20T08:41:49;2.92;;;1.30;;
23800;SDS011;12081;48.614;10.226;2023-07-20T08:44:33;3.58;;;1.15;;
23800;SDS011;12081;48.614;10.226;2023-07-20T08:47:18;2.10;;;1.45;;
23800;SDS011;12081;48.614;10.226;2023-07-20T08:50:04;3.08;;;1.27;;
23800;SDS011;12081;48.614;10.226;2023-07-20T08:52:51;1.45;;;1.13;;
23800;SDS011;12081;48.614;10.226;2023-07-20T08:55:37;5.60;;;1.40;;
23800;SDS011;12081;48.614;10.226;2023-07-20T08:58:23;2.67;;;1.33;;
23800;SDS011;12081;48.614;10.226;2023-07-20T09:01:10;1.90;;;1.23;;
23800;SDS011;12081;48.614;10.226;2023-07-20T09:03:54;2.25;;;1.00;;
23800;SDS011;12081;48.614;10.226;2023-07-20T09:06:39;2.47;;;1.33;;
23800;SDS011;12081;48.614;10.226;2023-07-20T09:09:23;1.67;;;1.30;;
23800;SDS011;12081;48.614;10.226;2023-07-20T09:12:16;3.92;;;1.75;;
23800;SDS011;12081;48.614;10.226;2023-07-20T09:15:00;3.45;;;1.33;;
23800;SDS011;12081;48.614;10.226;2023-07-20T09:17:48;1.75;;;1.20;;
23800;SDS011;12081;48.614;10.226;2023-07-20T09:20:33;2.65;;;1.70;;
23800;SDS011;12081;48.614;10.226;2023-07-20T09:23:18;2.50;;;1.25;;
23800;SDS011;12081;48.614;10.226;2023-07-20T09:26:14;3.83;;;1.20;;
23800;SDS011;12081;48.614;10.226;2023-07-20T09:29:05;3.80;;;1.40;;
23800;SDS011;12081;48.614;10.226;2023-07-20T09:32:02;1.95;;;1.38;;
23800;SDS011;12081;48.614;10.226;2023-07-20T09:34:48;4.10;;;1.70;;
23800;SDS011;12081;48.614;10.226;2023-07-20T09:37:33;2.65;;;1.40;;
23800;SDS011;12081;48.614;10.226;2023-07-20T09:40:18;3.90;;;1.38;;
23800;SDS011;12081;48.614;10.226;2023-07-20T09:43:04;2.63;;;1.60;;
23800;SDS011;12081;48.614;10.226;2023-07-20T09:45:52;3.45;;;1.50;;
23800;SDS011;12081;48.614;10.226;2023-07-20T09:48:48;2.60;;;1.60;;
23800;SDS011;12081;48.614;10.226;2023-07-20T09:51:37;2.55;;;1.13;;
23800;SDS011;12081;48.614;10.226;2023-07-20T09:54:23;2.83;;;1.40;;
23800;SDS011;12081;48.614;10.226;2023-07-20T09:57:11;1.40;;;1.30;;
23800;SDS011;12081;48.614;10.226;2023-07-20T09:59:57;2.90;;;1.50;;
23800;SDS011;12081;48.614;10.226;2023-07-20T10:02:44;2.30;;;1.42;;
23800;SDS011;12081;48.614;10.226;2023-07-20T10:05:29;5.22;;;1.25;;
23800;SDS011;12081;48.614;10.226;2023-07-20T10:08:20;2.75;;;1.48;;
23800;SDS011;12081;48.614;10.226;2023-07-20T10:11:08;1.48;;;1.30;;
23800;SDS011;12081;48.614;10.226;2023-07-20T10:13:55;2.28;;;1.30;;
23800;SDS011;12081;48.614;10.226;2023-07-20T10:16:50;1.70;;;1.30;;
23800;SDS011;12081;48.614;10.226;2023-07-20T10:19:42;4.30;;;1.50;;
23800;SDS011;12081;48.614;10.226;2023-07-20T10:22:29;3.85;;;1.33;;
23800;SDS011;12081;48.614;10.226;2023-07-20T10:25:18;3.00;;;1.40;;
23800;SDS011;12081;48.614;10.226;2023-07-20T10:28:05;2.75;;;1.33;;
23800;SDS011;12081;48.614;10.226;2023-07-20T10:30:50;2.55;;;1.58;;
23800;SDS011;12081;48.614;10.226;2023-07-20T10:33:35;4.13;;;1.45;;
23800;SDS011;12081;48.614;10.226;2023-07-20T10:36:24;4.13;;;1.42;;
23800;SDS011;12081;48.614;10.226;2023-07-20T10:42:17;2.08;;;1.30;;
23800;SDS011;12081;48.614;10.226;2023-07-20T10:45:03;2.38;;;1.63;;
23800;SDS011;12081;48.614;10.226;2023-07-20T10:47:47;1.50;;;1.08;;
23800;SDS011;12081;48.614;10.226;2023-07-20T10:50:32;4.45;;;1.60;;
23800;SDS011;12081;48.614;10.226;2023-07-20T10:53:17;1.65;;;1.20;;
23800;SDS011;12081;48.614;10.226;2023-07-20T10:56:12;1.77;;;1.10;;
23800;SDS011;12081;48.614;10.226;2023-07-20T10:58:59;1.65;;;1.00;;
23800;SDS011;12081;48.614;10.226;2023-07-20T11:01:44;1.60;;;1.10;;
23800;SDS011;12081;48.614;10.226;2023-07-20T11:07:38;2.05;;;1.20;;
23800;SDS011;12081;48.614;10.226;2023-07-20T11:10:22;5.03;;;1.65;;
23800;SDS011;12081;48.614;10.226;2023-07-20T11:13:18;2.40;;;1.10;;
23800;SDS011;12081;48.614;10.226;2023-07-20T11:16:03;3.22;;;1.25;;
23800;SDS011;12081;48.614;10.226;2023-07-20T11:18:48;2.65;;;1.25;;
23800;SDS011;12081;48.614;10.226;2023-07-20T11:21:37;3.15;;;1.58;;
23800;SDS011;12081;48.614;10.226;2023-07-20T11:24:25;2.10;;;1.50;;
23800;SDS011;12081;48.614;10.226;2023-07-20T11:27:09;2.28;;;1.30;;
23800;SDS011;12081;48.614;10.226;2023-07-20T11:29:53;4.85;;;1.67;;
23800;SDS011;12081;48.614;10.226;2023-07-20T11:32:45;2.25;;;1.52;;
23800;SDS011;12081;48.614;10.226;2023-07-20T11:35:35;4.18;;;1.50;;
23800;SDS011;12081;48.614;10.226;2023-07-20T11:38:20;2.70;;;1.30;;
23800;SDS011;12081;48.614;10.226;2023-07-20T11:41:04;2.42;;;1.60;;
23800;SDS011;12081;48.614;10.226;2023-07-20T11:43:48;3.88;;;1.25;;
23800;SDS011;12081;48.614;10.226;2023-07-20T11:46:33;2.03;;;1.48;;
23800;SDS011;12081;48.614;10.226;2023-07-20T11:49:18;2.95;;;1.38;;
23800;SDS011;12081;48.614;10.226;2023-07-20T11:52:03;3.90;;;1.27;;
23800;SDS011;12081;48.614;10.226;2023-07-20T11:54:52;3.75;;;1.83;;
23800;SDS011;12081;48.614;10.226;2023-07-20T11:57:36;1.58;;;1.48;;
23800;SDS011;12081;48.614;10.226;2023-07-20T12:00:24;2.13;;;1.50;;
23800;SDS011;12081;48.614;10.226;2023-07-20T12:03:09;3.15;;;1.50;;
23800;SDS011;12081;48.614;10.226;2023-07-20T12:05:54;3.40;;;1.58;;
23800;SDS011;12081;48.614;10.226;2023-07-20T12:08:42;1.77;;;1.33;;
23800;SDS011;12081;48.614;10.226;2023-07-20T12:11:37;2.30;;;1.67;;
23800;SDS011;12081;48.614;10.226;2023-07-20T12:14:25;2.30;;;1.52;;
23800;SDS011;12081;48.614;10.226;2023-07-20T12:17:09;2.20;;;1.50;;
23800;SDS011;12081;48.614;10.226;2023-07-20T12:19:56;2.40;;;1.48;;
23800;SDS011;12081;48.614;10.226;2023-07-20T12:22:43;3.22;;;1.50;;
23800;SDS011;12081;48.614;10.226;2023-07-20T12:25:44;3.13;;;1.70;;
23800;SDS011;12081;48.614;10.226;2023-07-20T12:28:29;4.07;;;1.73;;
23800;SDS011;12081;48.614;10.226;2023-07-20T12:31:13;4.97;;;1.60;;
23800;SDS011;12081;48.614;10.226;2023-07-20T12:33:57;3.40;;;1.63;;
23800;SDS011;12081;48.614;10.226;2023-07-20T12:36:42;2.28;;;1.83;;
23800;SDS011;12081;48.614;10.226;2023-07-20T12:39:26;2.05;;;1.42;;
23800;SDS011;12081;48.614;10.226;2023-07-20T12:42:10;2.45;;;1.60;;
23800;SDS011;12081;48.614;10.226;2023-07-20T12:44:54;2.00;;;1.60;;
23800;SDS011;12081;48.614;10.226;2023-07-20T12:47:38;1.90;;;1.45;;
23800;SDS011;12081;48.614;10.226;2023-07-20T12:50:22;3.83;;;1.65;;
23800;SDS011;12081;48.614;10.226;2023-07-20T12:53:06;2.65;;;1.70;;
23800;SDS011;12081;48.614;10.226;2023-07-20T12:55:50;6.00;;;1.50;;
23800;SDS011;12081;48.614;10.226;2023-07-20T12:58:34;4.75;;;1.67;;
23800;SDS011;12081;48.614;10.226;2023-07-20T13:01:18;6.32;;;1.70;;
23800;SDS011;12081;48.614;10.226;2023-07-20T13:04:02;2.67;;;1.40;;
23800;SDS011;12081;48.614;10.226;2023-07-20T13:06:47;3.22;;;1.70;;
23800;SDS011;12081;48.614;10.226;2023-07-20T13:09:31;2.10;;;1.60;;
23800;SDS011;12081;48.614;10.226;2023-07-20T13:12:15;2.25;;;1.58;;
23800;SDS011;12081;48.614;10.226;2023-07-20T13:15:01;4.80;;;1.58;;
23800;SDS011;12081;48.614;10.226;2023-07-20T13:17:49;2.92;;;1.92;;
23800;SDS011;12081;48.614;10.226;2023-07-20T13:20:34;2.60;;;1.40;;
23800;SDS011;12081;48.614;10.226;2023-07-20T13:23:18;3.20;;;1.70;;
23800;SDS011;12081;48.614;10.226;2023-07-20T13:26:02;2.20;;;1.55;;
23800;SDS011;12081;48.614;10.226;2023-07-20T13:28:48;1.67;;;1.58;;
23800;SDS011;12081;48.614;10.226;2023-07-20T13:31:32;3.35;;;1.60;;
23800;SDS011;12081;48.614;10.226;2023-07-20T13:34:16;1.95;;;1.50;;
23800;SDS011;12081;48.614;10.226;2023-07-20T13:37:00;2.08;;;1.40;;
23800;SDS011;12081;48.614;10.226;2023-07-20T13:39:45;2.88;;;1.45;;
23800;SDS011;12081;48.614;10.226;2023-07-20T13:42:29;2.10;;;1.63;;
23800;SDS011;12081;48.614;10.226;2023-07-20T13:45:13;3.90;;;2.08;;
23800;SDS011;12081;48.614;10.226;2023-07-20T13:47:57;2.15;;;1.40;;
23800;SDS011;12081;48.614;10.226;2023-07-20T13:50:41;2.88;;;1.77;;
23800;SDS011;12081;48.614;10.226;2023-07-20T13:53:25;1.80;;;1.58;;
23800;SDS011;12081;48.614;10.226;2023-07-20T13:56:11;1.83;;;1.38;;
23800;SDS011;12081;48.614;10.226;2023-07-20T13:58:55;1.98;;;1.50;;
23800;SDS011;12081;48.614;10.226;2023-07-20T14:01:40;2.13;;;1.50;;
23800;SDS011;12081;48.614;10.226;2023-07-20T14:04:24;2.67;;;1.60;;
23800;SDS011;12081;48.614;10.226;2023-07-20T14:07:08;3.25;;;1.90;;
23800;SDS011;12081;48.614;10.226;2023-07-20T14:09:52;1.65;;;1.40;;
23800;SDS011;12081;48.614;10.226;2023-07-20T14:12:36;2.40;;;1.50;;
23800;SDS011;12081;48.614;10.226;2023-07-20T14:15:20;2.55;;;1.48;;
23800;SDS011;12081;48.614;10.226;2023-07-20T14:18:05;3.38;;;1.48;;
23800;SDS011;12081;48.614;10.226;2023-07-20T14:20:49;2.47;;;1.70;;
23800;SDS011;12081;48.614;10.226;2023-07-20T14:23:33;2.83;;;1.40;;
23800;SDS011;12081;48.614;10.226;2023-07-20T14:26:17;2.10;;;1.42;;
23800;SDS011;12081;48.614;10.226;2023-07-20T14:29:01;1.40;;;1.27;;
23800;SDS011;12081;48.614;10.226;2023-07-20T14:31:45;3.72;;;1.30;;
23800;SDS011;12081;48.614;10.226;2023-07-20T14:34:33;4.20;;;1.55;;
23800;SDS011;12081;48.614;10.226;2023-07-20T14:37:17;5.03;;;1.50;;
23800;SDS011;12081;48.614;10.226;2023-07-20T14:40:02;3.35;;;1.50;;
23800;SDS011;12081;48.614;10.226;2023-07-20T14:42:48;1.88;;;1.40;;
23800;SDS011;12081;48.614;10.226;2023-07-20T14:45:32;2.10;;;1.40;;
23800;SDS011;12081;48.614;10.226;2023-07-20T14:48:16;3.33;;;1.48;;
23800;SDS011;12081;48.614;10.226;2023-07-20T14:51:00;2.00;;;1.50;;
23800;SDS011;12081;48.614;10.226;2023-07-20T14:53:44;2.05;;;1.30;;
23800;SDS011;12081;48.614;10.226;2023-07-20T14:56:28;3.45;;;1.40;;
23800;SDS011;12081;48.614;10.226;2023-07-20T14:59:13;2.80;;;1.50;;
23800;SDS011;12081;48.614;10.226;2023-07-20T15:01:57;2.05;;;1.30;;
23800;SDS011;12081;48.614;10.226;2023-07-20T15:04:47;4.45;;;1.38;;
23800;SDS011;12081;48.614;10.226;2023-07-20T15:07:33;3.78;;;1.35;;
23800;SDS011;12081;48.614;10.226;2023-07-20T15:10:18;1.95;;;1.50;;
23800;SDS011;12081;48.614;10.226;2023-07-20T15:13:03;2.33;;;1.42;;
23800;SDS011;12081;48.614;10.226;2023-07-20T15:15:47;3.85;;;1.55;;
23800;SDS011;12081;48.614;10.226;2023-07-20T15:18:32;3.60;;;1.42;;
23800;SDS011;12081;48.614;10.226;2023-07-20T15:21:16;3.38;;;1.48;;
23800;SDS011;12081;48.614;10.226;2023-07-20T15:24:01;3.35;;;1.55;;
23800;SDS011;12081;48.614;10.226;2023-07-20T15:26:45;2.42;;;1.42;;
23800;SDS011;12081;48.614;10.226;2023-07-20T15:29:29;2.53;;;1.60;;
23800;SDS011;12081;48.614;10.226;2023-07-20T15:32:13;2.15;;;1.40;;
23800;SDS011;12081;48.614;10.226;2023-07-20T15:35:00;1.95;;;1.40;;
23800;SDS011;12081;48.614;10.226;2023-07-20T15:37:44;2.05;;;1.25;;
23800;SDS011;12081;48.614;10.226;2023-07-20T15:40:28;4.75;;;1.30;;
23800;SDS011;12081;48.614;10.226;2023-07-20T15:43:12;2.28;;;1.30;;
23800;SDS011;12081;48.614;10.226;2023-07-20T15:49:02;1.60;;;1.50;;
23800;SDS011;12081;48.614;10.226;2023-07-20T15:51:46;2.90;;;1.27;;
23800;SDS011;12081;48.614;10.226;2023-07-20T15:54:31;3.47;;;1.33;;
23800;SDS011;12081;48.614;10.226;2023-07-20T15:57:15;3.30;;;1.50;;
23800;SDS011;12081;48.614;10.226;2023-07-20T16:00:00;2.85;;;1.52;;
23800;SDS011;12081;48.614;10.226;2023-07-20T16:02:44;1.92;;;1.40;;
23800;SDS011;12081;48.614;10.226;2023-07-20T16:05:28;2.08;;;1.30;;
23800;SDS011;12081;48.614;10.226;2023-07-20T16:08:13;4.28;;;1.30;;
23800;SDS011;12081;48.614;10.226;2023-07-20T16:10:57;1.75;;;1.38;;
23800;SDS011;12081;48.614;10.226;2023-07-20T16:13:41;1.80;;;1.55;;
23800;SDS011;12081;48.614;10.226;2023-07-20T16:16:28;2.15;;;1.10;;
23800;SDS011;12081;48.614;10.226;2023-07-20T16:19:14;1.60;;;1.17;;
23800;SDS011;12081;48.614;10.226;2023-07-20T16:21:58;3.53;;;1.42;;
23800;SDS011;12081;48.614;10.226;2023-07-20T16:24:42;3.15;;;1.35;;
23800;SDS011;12081;48.614;10.226;2023-07-20T16:27:26;3.70;;;1.50;;
23800;SDS011;12081;48.614;10.226;2023-07-20T16:30:10;2.15;;;1.42;;
23800;SDS011;12081;48.614;10.226;2023-07-20T16:32:56;1.92;;;1.30;;
23800;SDS011;12081;48.614;10.226;2023-07-20T16:35:40;4.07;;;1.35;;
23800;SDS011;12081;48.614;10.226;2023-07-20T16:38:25;2.03;;;1.33;;
23800;SDS011;12081;48.614;10.226;2023-07-20T16:41:09;3.30;;;1.52;;
23800;SDS011;12081;48.614;10.226;2023-07-20T16:43:54;1.65;;;1.35;;
23800;SDS011;12081;48.614;10.226;2023-07-20T16:46:38;2.55;;;1.40;;
23800;SDS011;12081;48.614;10.226;2023-07-20T16:49:22;1.70;;;1.23;;